Rubottom, Oklahoma
Current Conditions -  °F | °C
As of 9:55 PM on Thursday 18 Dec 2014 (Local Time) from K1F0 Reporting Station
Overcast Overcast  
Wind Chill: 43°   Ceiling: 600
Heat Index: 43°   Visibility: 7mi
Dew Point: 43°   Wind: 0mph
Humidity: 100%   Direction: NA
Pressure: 30.19"   Gusts: NA
Location:  34.156°N, 97.4228°W
Report Text: K1F0 190355Z AUTO 00000KT 7SM BKN006 OVC010 06/06 A3019 RMK AO2
Loading
Personal Weather Stations






























Interactive Weather Map New forecast layout! Learn more

10-Day Weather Forecast

Advertisements
Track Severe Weather on mobile